Schedule Details


Flight Number: CTN491
Departure: Heathrow (EGLL) at 11:50
Arrival: Krk Island (LDRI) at 15:05
Route: DET UL6 DVR UL9 KONAN UL607 ILB Y560 ARMIX

Weather Information
EGLL 151550Z AUTO 29006KT 250V320 9999 NCD 26/14 Q1022
LDRI 151530Z 32004KT 270V360 CAVOK 26/15 Q1022
Schedule Frequency

Route Map